Time;durP1;ratioP1;P1;durP2;ratioP2;P2;SDS_P1;SDS_P2;PMS_P1;PMS_P2;Temp;Humidity;BMP_temperature;BMP_pressure;BME280_temperature;BME280_humidity;BME280_pressure;Samples;Min_cycle;Max_cycle;Signal;HPM_P1;HPM_P2
2023/01/14 00:06:45;;;;;;;211.27;125.95;;;102.50;2227.20;;;;;;4754565;30;20050;-89
2023/01/14 00:16:31;;;;;;;198.25;118.28;;;102.60;2227.20;;;;;;4775593;29;20057;-85
2023/01/14 00:22:21;;;;;;;216.82;129.30;;;102.80;2227.20;;;;;;4845544;29;20058;-89
2023/01/14 00:25:25;;;;;;;202.43;123.80;;;102.90;2227.20;;;;;;4847083;29;20526;-90
2023/01/14 00:28:32;;;;;;;184.82;113.82;;;102.90;2227.20;;;;;;4937920;29;20083;-89
2023/01/14 00:31:43;;;;;;;195.50;116.18;;;102.90;2227.20;;;;;;4940485;29;20039;-88
2023/01/14 00:51:18;;;;;;;271.75;154.63;;;102.70;2227.20;;;;;;4920538;29;20457;-90
2023/01/14 00:54:33;;;;;;;216.50;122.87;;;102.50;2227.20;;;;;;4900252;29;20034;-92
2023/01/14 01:01:17;;;;;;;273.05;155.43;;;102.60;2227.20;;;;;;4926831;29;20050;-92
2023/01/14 01:04:36;;;;;;;263.25;156.02;;;102.60;2227.20;;;;;;4951461;28;20118;-92
2023/01/14 01:07:28;;;;;;;236.30;137.05;;;102.50;2227.20;;;;;;4959302;28;20038;-89
2023/01/14 01:09:54;;;;;;;255.90;147.70;;;102.50;2227.20;;;;;;4940822;29;20497;-89
2023/01/14 01:13:06;;;;;;;260.02;147.07;;;102.40;2227.20;;;;;;4940195;28;20348;-90
2023/01/14 09:27:16;;;;;;;92.40;56.40;;;102.40;2227.20;;;;;;4840032;29;20056;-83
2023/01/14 09:29:41;;;;;;;89.53;52.47;;;102.60;2227.20;;;;;;4860725;29;20073;-83
2023/01/14 09:32:12;;;;;;;103.15;62.03;;;102.60;2227.20;;;;;;4861081;29;20037;-82
2023/01/14 09:34:48;;;;;;;118.85;70.55;;;102.70;2227.20;;;;;;4860808;29;20022;-83
2023/01/14 09:37:22;;;;;;;96.18;57.10;;;102.70;2227.20;;;;;;4861485;29;20465;-81
2023/01/14 09:39:49;;;;;;;108.20;67.47;;;102.80;2227.20;;;;;;4860573;29;20418;-83
2023/01/14 09:42:37;;;;;;;136.18;74.45;;;103.00;2227.20;;;;;;4860938;29;20029;-80
2023/01/14 09:45:26;;;;;;;113.15;60.75;;;102.90;2227.20;;;;;;4849170;29;20030;-80
2023/01/14 09:47:54;;;;;;;103.72;56.80;;;102.90;2227.20;;;;;;4860122;29;20096;-83
2023/01/14 09:50:27;;;;;;;109.65;57.15;;;102.90;2227.20;;;;;;4854937;29;20118;-81
2023/01/14 09:53:08;;;;;;;108.57;58.78;;;102.90;2227.20;;;;;;4860642;29;20060;-81
2023/01/14 09:55:45;;;;;;;90.30;49.45;;;102.90;2227.20;;;;;;4860891;29;20897;-85
2023/01/14 09:58:27;;;;;;;115.10;63.70;;;103.00;2227.20;;;;;;4870139;29;20029;-80
2023/01/14 10:00:56;;;;;;;103.80;53.95;;;103.00;2227.20;;;;;;4868073;29;20497;-83
2023/01/14 10:04:15;;;;;;;95.95;55.55;;;103.10;2227.20;;;;;;4870624;29;20021;-86
2023/01/14 10:06:48;;;;;;;110.80;59.60;;;103.00;2227.20;;;;;;4850075;29;20037;-85
2023/01/14 10:09:30;;;;;;;107.03;62.10;;;103.00;2227.20;;;;;;4859864;29;20104;-86
2023/01/14 10:11:56;;;;;;;100.90;59.55;;;103.00;2227.20;;;;;;4868835;29;20036;-84
2023/01/14 10:14:29;;;;;;;130.60;76.75;;;103.00;2227.20;;;;;;4867015;29;20033;-85
2023/01/14 10:17:04;;;;;;;107.95;66.15;;;103.10;2227.20;;;;;;4868389;29;20560;-84
2023/01/14 10:29:22;;;;;;;79.53;52.72;;;103.20;2227.20;;;;;;4881008;29;20065;-88
2023/01/14 10:38:28;;;;;;;91.93;57.50;;;128.30;2252.80;;;;;;4880701;29;20044;-88
2023/01/14 10:44:29;;;;;;;120.95;67.25;;;128.00;2252.80;;;;;;4880491;29;20097;-88
2023/01/14 10:46:59;;;;;;;85.03;49.67;;;128.00;2252.80;;;;;;4863794;29;20427;-89
2023/01/14 10:49:58;;;;;;;86.65;52.40;;;128.00;2252.80;;;;;;4863580;29;20040;-89
2023/01/14 10:52:28;;;;;;;108.30;66.80;;;128.10;2252.80;;;;;;4856730;29;20136;-90
2023/01/14 10:58:22;;;;;;;94.13;57.10;;;128.00;2252.80;;;;;;4881862;29;20377;-90
2023/01/14 11:00:53;;;;;;;101.65;59.92;;;128.20;2252.80;;;;;;4863846;29;20029;-90
2023/01/14 11:03:27;;;;;;;95.10;54.85;;;128.20;2252.80;;;;;;4863860;29;20029;-90
2023/01/14 11:06:15;;;;;;;92.93;65.35;;;128.20;2252.80;;;;;;4863846;29;20081;-90
2023/01/14 11:08:48;;;;;;;74.63;49.55;;;128.10;2252.80;;;;;;4863256;29;20035;-89
2023/01/14 11:11:24;;;;;;;66.20;45.13;;;128.00;2252.80;;;;;;4863598;29;20041;-90
2023/01/14 11:13:53;;;;;;;86.18;54.63;;;128.20;2252.80;;;;;;4863894;29;20108;-91
2023/01/14 11:16:31;;;;;;;80.32;53.60;;;128.20;2252.80;;;;;;4863627;29;20125;-89
2023/01/14 11:19:14;;;;;;;78.57;55.08;;;128.30;2252.80;;;;;;4864085;29;20040;-88
2023/01/14 11:21:47;;;;;;;78.97;48.25;;;128.30;2252.80;;;;;;4863658;29;20500;-89
2023/01/14 11:24:21;;;;;;;71.38;45.28;;;128.30;2252.80;;;;;;4863853;29;20026;-88
2023/01/14 11:26:47;;;;;;;69.03;46.90;;;128.30;2252.80;;;;;;4870149;29;20060;-89
2023/01/14 11:29:25;;;;;;;68.60;41.53;;;128.30;2252.80;;;;;;4879442;29;20029;-91
2023/01/14 11:31:54;;;;;;;71.88;47.08;;;128.20;2252.80;;;;;;4879564;29;20473;-91
2023/01/14 11:34:41;;;;;;;77.93;43.40;;;128.20;2252.80;;;;;;4879534;29;20029;-91
2023/01/14 11:37:10;;;;;;;80.90;48.90;;;128.40;2252.80;;;;;;4857471;29;20045;-90
2023/01/14 11:39:44;;;;;;;77.60;45.63;;;128.60;2252.80;;;;;;4866131;29;20041;-90
2023/01/14 11:42:41;;;;;;;72.18;45.70;;;128.60;2252.80;;;;;;4852250;29;20030;-86
2023/01/14 11:45:12;;;;;;;96.32;57.47;;;128.60;2252.80;;;;;;4851134;29;20032;-86
2023/01/14 11:47:56;;;;;;;101.95;61.22;;;128.80;2252.80;;;;;;4874161;29;20057;-86
2023/01/14 11:50:31;;;;;;;97.15;57.97;;;128.80;2252.80;;;;;;4878391;29;20040;-88
2023/01/14 11:53:16;;;;;;;99.00;56.88;;;128.90;2252.80;;;;;;4881655;29;20362;-89
2023/01/14 11:55:44;;;;;;;90.90;58.65;;;128.80;2252.80;;;;;;4877794;29;20037;-90
2023/01/14 11:58:15;;;;;;;102.07;63.90;;;128.90;2252.80;;;;;;4845727;29;20109;-87
2023/01/14 12:00:48;;;;;;;101.20;65.03;;;128.90;2252.80;;;;;;4859516;29;20042;-85
2023/01/14 12:03:35;;;;;;;96.15;65.40;;;128.90;2252.80;;;;;;4843614;29;20033;-86
2023/01/14 12:06:05;;;;;;;92.07;62.47;;;153.60;2252.80;;;;;;4845450;29;20038;-90
2023/01/14 12:08:33;;;;;;;79.13;54.13;;;153.60;2252.80;;;;;;4845982;29;20026;-88
2023/01/14 12:11:02;;;;;;;81.05;53.35;;;153.60;2252.80;;;;;;4844699;29;20152;-85
2023/01/14 12:16:49;;;;;;;90.63;59.30;;;153.60;2252.80;;;;;;4864051;29;20025;-87
2023/01/14 12:19:36;;;;;;;80.22;50.25;;;153.60;2252.80;;;;;;4868665;29;20106;-86
2023/01/14 12:22:17;;;;;;;99.15;59.50;;;128.90;2252.80;;;;;;4868946;29;20018;-87
2023/01/14 12:25:01;;;;;;;89.05;54.00;;;128.80;2252.80;;;;;;4868716;29;20015;-87
2023/01/14 12:27:46;;;;;;;77.50;48.75;;;128.80;2252.80;;;;;;4839489;29;20123;-89
2023/01/14 12:30:15;;;;;;;106.40;64.10;;;128.80;2252.80;;;;;;4812376;29;20043;-87
2023/01/14 12:32:49;;;;;;;295.15;215.00;;;128.70;2252.80;;;;;;4827688;29;20034;-88
2023/01/14 12:35:17;;;;;;;113.18;80.65;;;128.70;2252.80;;;;;;4812626;29;20479;-90
2023/01/14 12:37:59;;;;;;;95.97;59.45;;;128.80;2099.20;;;;;;4812454;29;20042;-90
2023/01/14 12:46:16;;;;;;;90.30;55.47;;;128.80;2176.00;;;;;;4827472;29;20061;-89
2023/01/14 12:48:42;;;;;;;88.28;56.63;;;128.80;2252.80;;;;;;4811343;29;20058;-90
2023/01/14 12:51:30;;;;;;;80.13;52.28;;;128.80;2252.80;;;;;;4811379;29;20415;-90
2023/01/14 12:54:02;;;;;;;76.43;55.58;;;128.80;2252.80;;;;;;4826192;29;20462;-86
2023/01/14 12:56:32;;;;;;;85.03;54.43;;;128.80;2252.80;;;;;;4811051;29;20470;-90
2023/01/14 12:59:20;;;;;;;92.40;58.15;;;128.80;2252.80;;;;;;4810970;29;20776;-91
2023/01/14 13:01:57;;;;;;;85.22;55.90;;;128.90;2252.80;;;;;;4811099;29;20128;-89
2023/01/14 13:04:28;;;;;;;100.72;59.58;;;128.90;2252.80;;;;;;4810403;29;20035;-90
2023/01/14 13:07:01;;;;;;;91.47;57.15;;;128.90;2252.80;;;;;;4810928;29;20030;-91
2023/01/14 13:09:55;;;;;;;109.85;65.53;;;128.80;1945.60;;;;;;4811035;29;20038;-90
2023/01/14 13:12:24;;;;;;;95.18;60.35;;;128.80;1920.00;;;;;;4808465;29;20035;-86
2023/01/14 13:14:58;;;;;;;91.68;61.33;;;128.80;2252.80;;;;;;4825740;29;20062;-87
2023/01/14 13:17:35;;;;;;;82.68;53.95;;;128.90;2252.80;;;;;;4810318;29;20056;-89
2023/01/14 13:20:24;;;;;;;93.07;63.53;;;128.80;2252.80;;;;;;4810035;29;20035;-90
2023/01/14 13:22:52;;;;;;;97.57;64.40;;;128.80;2252.80;;;;;;4810589;29;20045;-90
2023/01/14 13:25:18;;;;;;;88.72;56.97;;;128.80;2252.80;;;;;;4810899;29;20454;-92
2023/01/14 13:27:44;;;;;;;98.05;60.75;;;128.70;2252.80;;;;;;4848650;29;20118;-91
2023/01/14 13:30:19;;;;;;;93.80;54.70;;;128.60;2252.80;;;;;;4846317;29;20044;-89
2023/01/14 13:33:00;;;;;;;78.88;50.70;;;128.50;2252.80;;;;;;4846944;29;20034;-90
2023/01/14 13:35:31;;;;;;;95.65;58.90;;;128.40;1894.40;;;;;;4846826;29;20030;-90
2023/01/14 13:38:00;;;;;;;87.15;55.20;;;128.40;2252.80;;;;;;4843613;29;20093;-90
2023/01/14 13:40:36;;;;;;;83.45;52.20;;;128.40;2227.20;;;;;;4843760;29;20026;-90
2023/01/14 13:43:06;;;;;;;85.25;57.78;;;128.50;2252.80;;;;;;4843917;29;20037;-91
2023/01/14 13:45:35;;;;;;;83.70;52.15;;;128.60;2252.80;;;;;;4844060;29;20478;-92
2023/01/14 13:48:24;;;;;;;95.75;61.25;;;128.70;2252.80;;;;;;4843753;29;20068;-87
2023/01/14 13:50:52;;;;;;;84.70;57.88;;;128.70;2252.80;;;;;;4843354;29;20129;-89
2023/01/14 13:53:17;;;;;;;73.05;48.90;;;128.70;2252.80;;;;;;4843334;29;20095;-89
2023/01/14 13:55:58;;;;;;;77.13;51.13;;;128.70;2252.80;;;;;;4843430;29;20034;-89
2023/01/14 13:58:44;;;;;;;85.05;56.97;;;128.70;2252.80;;;;;;4843450;29;20057;-90
2023/01/14 14:01:30;;;;;;;96.95;60.25;;;128.60;2252.80;;;;;;4843515;29;20026;-91
2023/01/14 14:04:03;;;;;;;90.80;61.53;;;128.80;2252.80;;;;;;4843594;29;20065;-90
2023/01/14 14:06:32;;;;;;;103.65;66.38;;;128.90;2252.80;;;;;;4843783;29;20029;-90
2023/01/14 14:09:31;;;;;;;105.50;73.47;;;128.80;2252.80;;;;;;4844427;29;20543;-91
2023/01/14 14:15:23;;;;;;;96.90;63.92;;;128.90;2252.80;;;;;;4844720;29;20086;-90
2023/01/14 14:18:02;;;;;;;123.65;81.95;;;128.80;2252.80;;;;;;4834106;29;20391;-91
2023/01/14 14:20:42;;;;;;;110.57;73.22;;;128.80;2252.80;;;;;;4828260;29;20077;-91
2023/01/14 14:23:19;;;;;;;99.22;68.05;;;128.80;2252.80;;;;;;4828379;29;20034;-88
2023/01/14 14:25:45;;;;;;;102.88;74.10;;;128.90;2252.80;;;;;;4828892;29;20061;-84
2023/01/14 14:28:21;;;;;;;101.32;63.03;;;128.90;2252.80;;;;;;4846017;29;20029;-88
2023/01/14 14:30:56;;;;;;;170.65;71.13;;;128.80;2252.80;;;;;;4846235;29;20029;-91
2023/01/14 14:33:30;;;;;;;864.40;174.25;;;128.90;2252.80;;;;;;4846029;29;20037;-87
2023/01/14 14:35:56;;;;;;;441.63;114.75;;;128.80;2252.80;;;;;;4846021;29;20040;-89
2023/01/14 14:38:24;;;;;;;174.55;77.65;;;128.90;2252.80;;;;;;4845890;29;20033;-91
2023/01/14 14:40:50;;;;;;;118.38;72.72;;;153.60;2252.80;;;;;;4848203;29;20487;-90
2023/01/14 14:43:34;;;;;;;113.57;72.93;;;153.60;2252.80;;;;;;4857473;29;20064;-90
2023/01/14 14:46:06;;;;;;;121.75;78.30;;;128.90;2252.80;;;;;;4859282;29;20119;-92
2023/01/14 14:48:33;;;;;;;114.50;78.15;;;128.90;2252.80;;;;;;4846971;29;20487;-91
2023/01/14 14:51:12;;;;;;;135.43;90.10;;;128.90;2252.80;;;;;;4857472;29;20041;-93
2023/01/14 14:53:44;;;;;;;200.70;133.38;;;128.60;2252.80;;;;;;4852179;29;20385;-90
2023/01/14 14:56:15;;;;;;;134.60;86.68;;;128.50;2252.80;;;;;;4853658;29;20526;-90
2023/01/14 14:58:44;;;;;;;179.98;105.38;;;128.60;2252.80;;;;;;4855749;29;20021;-92
2023/01/14 15:01:10;;;;;;;231.45;129.07;;;128.50;2252.80;;;;;;4853351;29;20056;-91
2023/01/14 15:03:38;;;;;;;159.82;97.00;;;128.40;1996.80;;;;;;4850644;29;20040;-92
2023/01/14 15:06:11;;;;;;;120.15;74.07;;;128.40;2252.80;;;;;;4851065;29;20033;-92
2023/01/14 15:08:39;;;;;;;;;;;128.30;2252.80;;;;;;4843064;29;20465;-92
2023/01/14 15:11:09;;;;;;;229.50;126.25;;;128.20;2252.80;;;;;;4856473;29;19912;-92
2023/01/14 15:13:45;;;;;;;182.82;107.63;;;128.20;2252.80;;;;;;4855276;29;20386;-91
2023/01/14 15:16:11;;;;;;;130.13;82.38;;;128.30;2252.80;;;;;;4850739;29;20372;-93
2023/01/14 15:21:39;;;;;;;105.90;76.28;;;128.40;1971.20;;;;;;4882103;29;20117;-89
2023/01/14 15:24:13;;;;;;;103.32;71.68;;;128.40;2252.80;;;;;;4864415;29;20053;-87
2023/01/14 15:26:41;;;;;;;171.48;108.07;;;128.40;2252.80;;;;;;4871197;29;20132;-87
2023/01/14 15:29:17;;;;;;;100.82;64.40;;;128.30;2252.80;;;;;;4883593;29;20116;-88
2023/01/14 15:31:43;;;;;;;100.88;67.70;;;128.20;2252.80;;;;;;4883152;29;20029;-89
2023/01/14 15:34:26;;;;;;;114.38;75.68;;;128.30;2252.80;;;;;;4883179;29;20025;-91
2023/01/14 15:37:07;;;;;;;109.88;67.75;;;128.30;2252.80;;;;;;4881981;29;20047;-89
2023/01/14 15:39:39;;;;;;;110.93;71.38;;;128.40;2252.80;;;;;;4883043;29;20033;-90
2023/01/14 15:42:06;;;;;;;151.93;98.20;;;128.30;2252.80;;;;;;4882966;29;20128;-90
2023/01/14 15:44:37;;;;;;;183.55;115.03;;;128.40;2252.80;;;;;;4883255;29;20028;-91
2023/01/14 15:47:03;;;;;;;173.45;109.47;;;128.40;2252.80;;;;;;4883395;29;20135;-91
2023/01/14 15:49:32;;;;;;;180.38;115.93;;;128.60;1894.40;;;;;;4883118;29;20037;-91
2023/01/14 15:51:58;;;;;;;183.95;122.78;;;128.70;2252.80;;;;;;4882913;29;20025;-91
2023/01/14 15:54:36;;;;;;;188.93;123.55;;;128.80;2252.80;;;;;;4882842;29;20033;-90
2023/01/14 15:57:24;;;;;;;239.35;153.00;;;128.70;2252.80;;;;;;4882795;29;20052;-90
2023/01/14 16:00:08;;;;;;;329.88;212.63;;;128.70;2022.40;;;;;;4866814;29;20040;-92
2023/01/14 16:02:38;;;;;;;295.42;191.93;;;128.60;2201.60;;;;;;4862783;29;20444;-90
2023/01/14 16:05:32;;;;;;;248.73;161.07;;;128.60;2252.80;;;;;;4860593;29;20382;-91
2023/01/14 16:08:05;;;;;;;214.50;141.15;;;128.60;2252.80;;;;;;4859856;29;20021;-91
2023/01/14 16:10:31;;;;;;;232.73;152.75;;;128.60;2252.80;;;;;;4876614;29;20152;-91
2023/01/14 16:13:00;;;;;;;194.27;129.70;;;128.60;2252.80;;;;;;4879273;29;20050;-93
2023/01/14 16:15:29;;;;;;;147.38;102.20;;;128.60;2252.80;;;;;;4879039;29;20382;-90
2023/01/14 16:18:24;;;;;;;90.72;62.42;;;128.70;2252.80;;;;;;4863609;29;20040;-94
2023/01/14 16:20:52;;;;;;;99.82;66.32;;;128.70;2252.80;;;;;;4851569;29;20057;-91
2023/01/14 16:23:19;;;;;;;97.10;63.35;;;128.80;2252.80;;;;;;4878786;29;20029;-90
2023/01/14 16:25:45;;;;;;;99.03;62.75;;;128.80;2252.80;;;;;;4878565;29;20037;-89
2023/01/14 16:28:11;;;;;;;101.30;67.68;;;128.80;2252.80;;;;;;4848215;29;20116;-90
2023/01/14 16:30:36;;;;;;;102.72;65.53;;;128.90;2252.80;;;;;;4847984;29;20069;-90
2023/01/14 16:33:02;;;;;;;88.18;58.83;;;128.90;2252.80;;;;;;4847948;29;20108;-90
2023/01/14 16:35:28;;;;;;;113.07;72.75;;;128.90;2252.80;;;;;;4838090;29;20030;-90
2023/01/14 16:37:54;;;;;;;106.00;70.40;;;128.90;2252.80;;;;;;4843609;29;20042;-90
2023/01/14 16:40:28;;;;;;;116.40;74.18;;;128.90;2252.80;;;;;;4855993;29;20184;-89
2023/01/14 16:42:54;;;;;;;97.97;61.05;;;128.90;2252.80;;;;;;4851668;29;20029;-89
2023/01/14 16:45:20;;;;;;;90.78;62.15;;;128.90;2252.80;;;;;;4847393;29;20032;-91
2023/01/14 16:47:47;;;;;;;97.40;64.22;;;128.90;2252.80;;;;;;4847872;29;20033;-89
2023/01/14 16:50:13;;;;;;;99.55;66.03;;;128.80;2252.80;;;;;;4847640;29;20041;-85
2023/01/14 16:52:40;;;;;;;83.45;57.00;;;128.90;2252.80;;;;;;4858383;29;20503;-88
2023/01/14 16:55:06;;;;;;;83.00;56.38;;;128.90;2252.80;;;;;;4851572;29;20038;-91
2023/01/14 16:57:35;;;;;;;78.50;55.25;;;153.60;2252.80;;;;;;4854412;29;20032;-86
2023/01/14 17:00:01;;;;;;;62.53;42.90;;;128.90;2252.80;;;;;;4836534;29;20414;-87
2023/01/14 17:02:27;;;;;;;56.20;40.22;;;153.60;2252.80;;;;;;4839454;29;20034;-87
2023/01/14 17:04:52;;;;;;;45.15;34.67;;;153.60;2252.80;;;;;;4850497;29;20459;-87
2023/01/14 17:07:18;;;;;;;43.55;31.92;;;153.60;2252.80;;;;;;4853621;29;20528;-89
2023/01/14 17:09:44;;;;;;;35.33;25.38;;;153.60;2252.80;;;;;;4847202;29;20036;-91
2023/01/14 17:14:54;;;;;;;35.65;25.65;;;153.60;2252.80;;;;;;4863636;29;20048;-86
2023/01/14 17:17:20;;;;;;;39.28;26.98;;;153.60;2252.80;;;;;;4851062;29;20037;-90
2023/01/14 17:19:45;;;;;;;34.72;25.95;;;128.90;2252.80;;;;;;4855912;29;20041;-87
2023/01/14 17:22:11;;;;;;;35.10;23.25;;;153.60;2252.80;;;;;;4847496;29;20030;-91
2023/01/14 17:24:37;;;;;;;35.30;24.40;;;153.60;2252.80;;;;;;4846986;29;20132;-89
2023/01/14 17:27:04;;;;;;;92.43;60.90;;;153.60;2252.80;;;;;;4835601;29;20064;-90
2023/01/14 17:29:32;;;;;;;62.10;41.08;;;153.60;2252.80;;;;;;4828965;29;20045;-96
2023/01/14 17:31:58;;;;;;;69.50;47.25;;;153.60;2252.80;;;;;;4829517;29;20029;-93
2023/01/14 17:34:24;;;;;;;64.25;44.17;;;153.70;2252.80;;;;;;4828038;29;20675;-92
2023/01/14 17:36:50;;;;;;;67.78;46.45;;;153.70;2252.80;;;;;;4828623;29;20030;-90
2023/01/14 17:39:16;;;;;;;64.85;42.75;;;153.60;2252.80;;;;;;4828320;29;20037;-90
2023/01/14 17:44:26;;;;;;;82.80;60.13;;;153.80;2252.80;;;;;;4831857;29;20041;-87
2023/01/14 17:46:51;;;;;;;71.07;49.63;;;153.80;2252.80;;;;;;4828116;29;20034;-87
2023/01/14 17:49:19;;;;;;;60.03;44.85;;;153.80;2252.80;;;;;;4827831;29;20025;-88
2023/01/14 17:51:45;;;;;;;65.50;45.05;;;153.80;2252.80;;;;;;4827935;29;20098;-88
2023/01/14 17:54:15;;;;;;;53.42;36.42;;;153.80;2252.80;;;;;;4827685;29;20030;-89
2023/01/14 17:56:40;;;;;;;53.45;36.90;;;153.80;2252.80;;;;;;4827865;29;20054;-86
2023/01/14 17:59:06;;;;;;;52.05;35.40;;;153.70;2252.80;;;;;;4828105;29;20076;-91
2023/01/14 18:01:32;;;;;;;56.08;38.40;;;153.80;2252.80;;;;;;4827909;29;20034;-87
2023/01/14 18:03:58;;;;;;;44.22;30.65;;;153.80;2252.80;;;;;;4827560;29;20065;-86
2023/01/14 18:06:25;;;;;;;41.83;30.75;;;153.80;2252.80;;;;;;4827721;29;20030;-88
2023/01/14 18:08:52;;;;;;;33.95;24.25;;;153.90;2252.80;;;;;;4827829;29;20402;-88
2023/01/14 18:11:18;;;;;;;34.80;27.25;;;154.50;2252.80;;;;;;4826973;29;20090;-87
2023/01/14 18:13:44;;;;;;;27.92;20.70;;;153.90;2252.80;;;;;;4827227;29;20652;-85
2023/01/14 18:16:10;;;;;;;31.55;22.80;;;153.80;2252.80;;;;;;4827205;29;20120;-88
2023/01/14 18:18:36;;;;;;;40.50;27.70;;;153.90;2252.80;;;;;;4827487;29;20116;-83
2023/01/14 18:21:05;;;;;;;41.08;29.75;;;153.80;2252.80;;;;;;4826883;29;20034;-89
2023/01/14 18:23:33;;;;;;;43.80;30.50;;;153.90;2252.80;;;;;;4827610;29;20030;-91
2023/01/14 18:26:02;;;;;;;42.47;29.83;;;153.80;2252.80;;;;;;4831201;29;20053;-92
2023/01/14 18:28:32;;;;;;;48.33;31.80;;;153.90;2252.80;;;;;;4876421;29;20033;-92
2023/01/14 18:30:58;;;;;;;56.97;40.67;;;153.90;2252.80;;;;;;4876276;29;20084;-91
2023/01/14 18:33:24;;;;;;;93.63;66.38;;;153.90;2252.80;;;;;;4876891;29;20124;-94
2023/01/14 18:35:50;;;;;;;81.93;58.53;;;153.90;2252.80;;;;;;4874653;29;20408;-92
2023/01/14 18:38:16;;;;;;;98.80;65.85;;;153.90;2252.80;;;;;;4867079;29;20037;-92
2023/01/14 18:40:44;;;;;;;68.72;46.75;;;153.90;2252.80;;;;;;4867796;29;20085;-92
2023/01/14 18:43:10;;;;;;;106.93;68.82;;;153.80;2252.80;;;;;;4863884;29;20037;-93
2023/01/14 18:45:36;;;;;;;111.22;70.65;;;153.80;2252.80;;;;;;4868744;29;20029;-94
2023/01/14 18:48:02;;;;;;;124.20;84.72;;;153.90;2252.80;;;;;;4862084;29;20037;-92
2023/01/14 18:50:28;;;;;;;128.80;84.03;;;153.70;2252.80;;;;;;4863780;29;20057;-91
2023/01/14 18:52:55;;;;;;;140.40;90.30;;;153.90;2252.80;;;;;;4850309;29;20083;-92
2023/01/14 18:55:22;;;;;;;124.38;80.82;;;153.90;2252.80;;;;;;4846493;29;20036;-93
2023/01/14 18:57:48;;;;;;;109.70;70.75;;;153.90;2252.80;;;;;;4873904;29;20137;-94
2023/01/14 19:00:15;;;;;;;113.82;71.88;;;153.70;2252.80;;;;;;4861455;29;20041;-92
2023/01/14 19:02:41;;;;;;;101.00;66.97;;;153.80;2252.80;;;;;;4875741;29;20033;-92
2023/01/14 19:05:10;;;;;;;90.88;61.03;;;153.80;2252.80;;;;;;4875628;29;20032;-91
2023/01/14 19:07:36;;;;;;;106.68;73.70;;;153.90;2252.80;;;;;;4875819;29;20029;-94
2023/01/14 19:10:03;;;;;;;124.20;84.25;;;154.30;2252.80;;;;;;4876072;29;20037;-92
2023/01/14 19:12:29;;;;;;;150.45;101.88;;;153.80;2252.80;;;;;;4876380;29;20060;-92
2023/01/14 19:14:55;;;;;;;133.40;91.25;;;153.70;2252.80;;;;;;4860564;29;20069;-92
2023/01/14 19:17:21;;;;;;;150.00;101.97;;;153.80;2252.80;;;;;;4875874;29;20113;-91
2023/01/14 19:19:53;;;;;;;148.38;93.72;;;153.70;2252.80;;;;;;4876360;29;20041;-92
2023/01/14 19:22:19;;;;;;;161.88;103.40;;;128.90;2252.80;;;;;;4861217;29;20033;-92
2023/01/14 19:24:46;;;;;;;227.10;129.48;;;153.70;2252.80;;;;;;4863125;29;20394;-92
2023/01/14 19:27:15;;;;;;;218.27;133.40;;;153.90;2252.80;;;;;;4813974;29;1295318;-91
2023/01/14 19:29:41;;;;;;;234.75;133.13;;;154.00;2252.80;;;;;;4864992;29;20041;-94
2023/01/14 19:32:09;;;;;;;196.98;120.93;;;154.10;2252.80;;;;;;4858295;29;20034;-93
2023/01/14 19:34:35;;;;;;;181.63;113.05;;;154.10;2252.80;;;;;;4857192;29;20220;-93
2023/01/14 19:37:01;;;;;;;127.60;86.85;;;154.00;2252.80;;;;;;4861180;29;20029;-94
2023/01/14 19:39:29;;;;;;;119.32;84.47;;;153.90;2252.80;;;;;;4876456;29;20037;-92
2023/01/14 19:41:55;;;;;;;112.97;79.57;;;153.80;2252.80;;;;;;4876608;29;20030;-93
2023/01/14 19:44:22;;;;;;;140.00;96.65;;;153.90;2252.80;;;;;;4889084;29;20032;-87
2023/01/14 19:46:49;;;;;;;143.18;92.72;;;153.80;2252.80;;;;;;4876244;29;20053;-89
2023/01/14 19:49:16;;;;;;;131.68;91.95;;;153.70;2252.80;;;;;;4860874;29;20230;-90
2023/01/14 19:51:43;;;;;;;121.10;82.70;;;153.60;2252.80;;;;;;4875995;29;20093;-93
2023/01/14 19:54:11;;;;;;;117.45;78.93;;;128.90;2252.80;;;;;;4876185;29;20033;-93
2023/01/14 19:56:37;;;;;;;125.45;83.82;;;128.90;2252.80;;;;;;4875648;29;20105;-92
2023/01/14 19:59:04;;;;;;;107.80;70.20;;;128.80;2252.80;;;;;;4876101;29;20470;-92
2023/01/14 20:01:32;;;;;;;99.82;64.75;;;128.60;2252.80;;;;;;4876205;29;20431;-92
2023/01/14 20:03:59;;;;;;;131.02;83.95;;;128.70;2252.80;;;;;;4876466;29;20025;-91
2023/01/14 20:06:27;;;;;;;136.20;91.40;;;128.70;2252.80;;;;;;4875920;29;20057;-93
2023/01/14 20:08:53;;;;;;;148.13;102.03;;;128.80;1868.80;;;;;;4861022;29;20030;-92
2023/01/14 20:11:20;;;;;;;138.32;95.43;;;128.70;2150.40;;;;;;4859894;29;20120;-92
2023/01/14 20:13:46;;;;;;;132.52;90.07;;;128.20;2048.00;;;;;;4863681;29;20069;-91
2023/01/14 20:16:14;;;;;;;131.32;85.47;;;128.70;2150.40;;;;;;4863734;29;20040;-93
2023/01/14 20:18:40;;;;;;;126.38;86.22;;;128.70;1894.40;;;;;;4863702;29;20116;-92
2023/01/14 20:21:12;;;;;;;131.65;91.93;;;128.50;2048.00;;;;;;4875720;29;20097;-90
2023/01/14 20:23:38;;;;;;;140.00;95.63;;;128.60;2252.80;;;;;;4869268;29;20135;-92
2023/01/14 20:26:08;;;;;;;157.15;105.75;;;128.70;2252.80;;;;;;4877602;29;20057;-92
2023/01/14 20:28:35;;;;;;;143.50;95.78;;;128.70;2252.80;;;;;;4848502;29;20385;-91
2023/01/14 20:31:10;;;;;;;132.65;91.68;;;154.40;2252.80;;;;;;4848376;29;20038;-91
2023/01/14 20:33:36;;;;;;;117.30;81.85;;;128.80;2252.80;;;;;;4848505;29;20030;-93
2023/01/14 20:36:04;;;;;;;115.40;76.93;;;128.80;2252.80;;;;;;4848458;29;20062;-91
2023/01/14 20:38:30;;;;;;;105.28;67.38;;;128.80;2252.80;;;;;;4848638;29;20029;-93
2023/01/14 20:41:04;;;;;;;112.05;74.22;;;128.80;2252.80;;;;;;4848271;29;20067;-92
2023/01/14 20:43:31;;;;;;;123.35;80.57;;;128.90;2201.60;;;;;;4848499;29;20116;-91
2023/01/14 20:45:57;;;;;;;123.38;85.75;;;128.90;2252.80;;;;;;4848290;29;20032;-90
2023/01/14 20:48:28;;;;;;;107.47;72.55;;;128.80;2252.80;;;;;;4848180;29;20082;-92
2023/01/14 20:51:16;;;;;;;112.75;77.93;;;128.80;2252.80;;;;;;4848309;29;20121;-90
2023/01/14 20:53:42;;;;;;;112.18;73.72;;;128.80;2252.80;;;;;;4848131;29;20034;-91
2023/01/14 20:56:14;;;;;;;102.82;73.50;;;128.80;2252.80;;;;;;4848207;29;20045;-90
2023/01/14 21:01:08;;;;;;;142.05;95.05;;;128.90;2252.80;;;;;;4864466;29;20132;-92
2023/01/14 21:03:35;;;;;;;124.57;81.57;;;128.90;2252.80;;;;;;4848089;29;20378;-92
2023/01/14 21:06:04;;;;;;;122.53;85.38;;;128.90;2252.80;;;;;;4844980;29;20037;-90
2023/01/14 21:08:34;;;;;;;104.18;70.63;;;128.90;2252.80;;;;;;4839726;29;20033;-91
2023/01/14 21:11:11;;;;;;;108.88;70.75;;;128.80;2252.80;;;;;;4839472;29;20037;-89
2023/01/14 21:25:06;;;;;;;104.30;68.38;;;128.70;2252.80;;;;;;4856751;29;20045;-90
2023/01/14 21:27:33;;;;;;;109.32;78.35;;;128.70;2252.80;;;;;;4846436;29;20446;-91
2023/01/14 21:29:58;;;;;;;118.28;76.55;;;128.80;2252.80;;;;;;4846908;29;20072;-89
2023/01/14 21:32:24;;;;;;;112.82;73.82;;;128.80;2252.80;;;;;;4847325;29;20025;-89
2023/01/14 21:34:50;;;;;;;120.00;78.93;;;128.80;2252.80;;;;;;4843000;29;20462;-90
2023/01/14 21:37:16;;;;;;;101.22;69.65;;;128.80;2252.80;;;;;;4838577;29;20427;-92
2023/01/14 21:39:42;;;;;;;103.70;72.00;;;128.80;2252.80;;;;;;4843475;29;20067;-89
2023/01/14 21:44:52;;;;;;;97.25;64.43;;;128.80;2252.80;;;;;;4857093;29;20037;-88
2023/01/14 21:47:18;;;;;;;106.82;73.65;;;128.90;2252.80;;;;;;4836069;29;20037;-91
2023/01/14 21:49:49;;;;;;;105.97;76.70;;;128.90;2252.80;;;;;;4841312;29;20026;-91
2023/01/14 21:52:15;;;;;;;100.88;73.70;;;128.90;2252.80;;;;;;4838513;29;20029;-90
2023/01/14 21:54:41;;;;;;;112.53;79.63;;;153.60;2252.80;;;;;;4835051;29;20040;-88
2023/01/14 21:57:06;;;;;;;109.80;75.05;;;128.90;2252.80;;;;;;4831729;29;20109;-89
2023/01/14 21:59:32;;;;;;;136.35;89.88;;;128.90;2252.80;;;;;;4828378;29;20129;-91
2023/01/14 22:01:58;;;;;;;144.52;94.18;;;128.90;2252.80;;;;;;4834839;29;20037;-90
2023/01/14 22:04:26;;;;;;;128.55;81.75;;;128.80;2252.80;;;;;;4833777;29;20030;-90
2023/01/14 22:06:54;;;;;;;103.88;72.45;;;128.80;2252.80;;;;;;4828237;29;20082;-89